Time;durP1;ratioP1;P1;durP2;ratioP2;P2;SDS_P1;SDS_P2;PMS_P1;PMS_P2;Temp;Humidity;BMP_temperature;BMP_pressure;BME280_temperature;BME280_humidity;BME280_pressure;Samples;Min_cycle;Max_cycle;Signal;HPM_P1;HPM_P2
2021/07/06 00:07:02;;;;;;;3.83;1.67;;;16.20;99.90;;;;;;20989652;28;20037;-77
2021/07/06 00:17:04;;;;;;;4.53;2.40;;;16.10;99.90;;;;;;20989459;28;20494;-77
2021/07/06 00:27:05;;;;;;;4.57;1.98;;;16.00;99.90;;;;;;20992055;28;20039;-77
2021/07/06 00:37:05;;;;;;;7.40;2.53;;;15.90;99.90;;;;;;20997055;28;20029;-77
2021/07/06 00:47:06;;;;;;;8.57;2.60;;;15.80;99.90;;;;;;20990513;28;20047;-76
2021/07/06 00:57:07;;;;;;;9.53;2.67;;;15.70;99.90;;;;;;20985297;28;20040;-77
2021/07/06 01:07:08;;;;;;;4.50;2.27;;;15.70;99.90;;;;;;20984460;28;20028;-77
2021/07/06 01:17:10;;;;;;;8.57;3.93;;;15.50;99.90;;;;;;21001856;28;20036;-77
2021/07/06 01:27:11;;;;;;;5.15;2.65;;;15.30;99.90;;;;;;21000839;28;20544;-77
2021/07/06 01:37:19;;;;;;;4.17;3.00;;;15.30;99.90;;;;;;20982333;28;20102;-77
2021/07/06 01:47:20;;;;;;;7.57;2.45;;;15.30;99.90;;;;;;20999565;28;20037;-77
2021/07/06 01:57:24;;;;;;;10.60;3.30;;;15.20;99.90;;;;;;21001201;28;20622;-75
2021/07/06 02:07:25;;;;;;;5.70;3.30;;;15.20;99.90;;;;;;20997708;28;20119;-77
2021/07/06 02:17:26;;;;;;;5.23;3.27;;;14.90;99.90;;;;;;21006260;28;20039;-77
2021/07/06 02:27:27;;;;;;;5.20;3.20;;;14.90;99.90;;;;;;20996235;28;20025;-77
2021/07/06 02:37:28;;;;;;;5.07;3.13;;;14.90;99.90;;;;;;20995366;28;20266;-76
2021/07/06 02:47:29;;;;;;;3.33;2.60;;;15.00;99.90;;;;;;20994367;28;20035;-77
2021/07/06 02:57:36;;;;;;;5.83;2.70;;;14.90;99.90;;;;;;20975819;28;20029;-77
2021/07/06 03:07:38;;;;;;;5.97;3.10;;;14.80;99.90;;;;;;20992835;28;20059;-77
2021/07/06 03:17:39;;;;;;;4.13;3.15;;;14.60;99.90;;;;;;20954792;28;20039;-77
2021/07/06 03:27:41;;;;;;;8.50;3.23;;;14.60;99.90;;;;;;20991702;28;20032;-77
2021/07/06 03:37:42;;;;;;;5.95;3.33;;;14.50;99.90;;;;;;20991060;28;20044;-76
2021/07/06 03:47:43;;;;;;;3.00;2.20;;;14.50;99.90;;;;;;20993293;28;20033;-76
2021/07/06 03:57:45;;;;;;;3.93;2.60;;;14.50;99.90;;;;;;20981634;28;20028;-76
2021/07/06 04:07:47;;;;;;;12.93;3.85;;;14.50;99.90;;;;;;21004396;28;20274;-74
2021/07/06 04:17:48;;;;;;;4.22;2.80;;;14.70;99.90;;;;;;20990338;28;20119;-76
2021/07/06 04:27:51;;;;;;;9.10;3.13;;;14.80;99.90;;;;;;21000891;28;20059;-76
2021/07/06 04:37:52;;;;;;;14.43;2.85;;;14.80;99.90;;;;;;21000959;28;20056;-77
2021/07/06 04:47:53;;;;;;;14.07;2.53;;;15.00;99.90;;;;;;20984161;28;20039;-77
2021/07/06 04:57:54;;;;;;;5.90;2.73;;;15.30;99.90;;;;;;20996216;28;20023;-76
2021/07/06 05:07:55;;;;;;;6.83;2.70;;;15.40;99.90;;;;;;20995776;28;20107;-77
2021/07/06 05:17:56;;;;;;;5.90;2.57;;;15.30;99.90;;;;;;21000928;28;20029;-77
2021/07/06 05:27:57;;;;;;;5.07;2.47;;;15.60;99.90;;;;;;21000987;28;20399;-77
2021/07/06 05:38:00;;;;;;;2.67;1.97;;;16.00;99.90;;;;;;20981450;28;20064;-77
2021/07/06 05:48:02;;;;;;;4.30;2.30;;;16.70;99.90;;;;;;21002684;28;20033;-77
2021/07/06 05:58:03;;;;;;;9.98;2.20;;;17.30;99.90;;;;;;21003468;28;20083;-77
2021/07/06 06:08:04;;;;;;;3.10;1.47;;;17.40;99.90;;;;;;21003267;28;20398;-77
2021/07/06 06:18:05;;;;;;;8.17;2.13;;;18.10;99.90;;;;;;21000069;28;20028;-78
2021/07/06 06:28:07;;;;;;;6.83;1.87;;;18.10;99.90;;;;;;21000341;28;20119;-80
2021/07/06 06:38:08;;;;;;;4.85;2.05;;;18.90;99.90;;;;;;21000705;28;20043;-80
2021/07/06 06:48:09;;;;;;;8.60;1.53;;;19.20;99.90;;;;;;21009034;28;20395;-76
2021/07/06 06:58:10;;;;;;;5.67;2.10;;;19.10;99.90;;;;;;20962041;28;20071;-76
2021/07/06 07:08:11;;;;;;;5.80;1.53;;;19.40;99.90;;;;;;21000174;28;20032;-76
2021/07/06 07:18:12;;;;;;;5.03;1.60;;;20.20;99.90;;;;;;20992475;28;20036;-76
2021/07/06 07:28:13;;;;;;;3.37;1.67;;;21.40;99.90;;;;;;20973855;28;20045;-77
2021/07/06 07:38:13;;;;;;;5.90;1.40;;;21.90;99.90;;;;;;20979965;28;20516;-76
2021/07/06 07:48:14;;;;;;;3.77;1.00;;;22.30;99.90;;;;;;21002353;28;20025;-76
2021/07/06 07:58:15;;;;;;;4.20;1.33;;;23.00;99.90;;;;;;20990384;28;20111;-76
2021/07/06 08:08:17;;;;;;;8.07;1.43;;;22.30;99.90;;;;;;20972091;28;20082;-75
2021/07/06 08:18:19;;;;;;;5.47;1.30;;;22.90;99.90;;;;;;20989502;28;20044;-75
2021/07/06 08:28:22;;;;;;;3.72;1.05;;;22.40;99.90;;;;;;20989069;28;20040;-76
2021/07/06 08:38:23;;;;;;;3.08;1.67;;;22.60;99.90;;;;;;20970671;28;20039;-76
2021/07/06 08:48:26;;;;;;;9.33;1.30;;;22.90;99.90;;;;;;20989277;28;20029;-76
2021/07/06 08:58:27;;;;;;;3.40;2.03;;;22.80;99.90;;;;;;20988838;28;20490;-76
2021/07/06 09:08:31;;;;;;;2.60;1.83;;;22.10;99.90;;;;;;20989022;28;20040;-76
2021/07/06 09:18:33;;;;;;;3.75;1.98;;;22.60;99.90;;;;;;21002831;28;20036;-77
2021/07/06 09:28:36;;;;;;;2.55;2.13;;;22.60;99.90;;;;;;21009219;28;20037;-76
2021/07/06 09:38:57;;;;;;;3.78;2.05;;;22.30;99.90;;;;;;21006843;28;20624;-77
2021/07/06 09:49:01;;;;;;;4.03;1.95;;;21.80;99.90;;;;;;20989709;28;20376;-77
2021/07/06 09:59:03;;;;;;;5.68;2.10;;;21.90;99.90;;;;;;21001125;28;20029;-76
2021/07/06 10:09:05;;;;;;;4.25;1.90;;;21.30;99.90;;;;;;20985588;28;20430;-77
2021/07/06 10:19:07;;;;;;;2.97;2.60;;;21.10;99.90;;;;;;21004795;28;20036;-77
2021/07/06 10:29:08;;;;;;;3.08;2.47;;;20.90;99.90;;;;;;21003102;28;20036;-77
2021/07/06 10:39:10;;;;;;;5.33;2.60;;;21.00;99.90;;;;;;20984897;28;20031;-77
2021/07/06 10:49:33;;;;;;;5.75;2.72;;;20.90;99.90;;;;;;21000671;28;20560;-77
2021/07/06 10:59:35;;;;;;;4.32;3.13;;;20.70;99.90;;;;;;20983060;28;20102;-77
2021/07/06 11:09:37;;;;;;;5.72;3.25;;;21.10;99.90;;;;;;20999289;28;20062;-77
2021/07/06 11:19:40;;;;;;;7.60;3.15;;;21.00;99.90;;;;;;20981689;28;20033;-77
2021/07/06 11:29:42;;;;;;;4.20;3.22;;;20.80;99.90;;;;;;20999666;28;20040;-77
2021/07/06 11:39:46;;;;;;;3.50;2.70;;;20.90;99.90;;;;;;20994195;28;20093;-77
2021/07/06 11:49:47;;;;;;;4.75;2.35;;;21.50;99.90;;;;;;20957371;28;20116;-76
2021/07/06 11:59:48;;;;;;;1.30;1.13;;;21.00;99.90;;;;;;20990589;28;20071;-75
2021/07/06 12:10:01;;;;;;;6.50;1.30;;;21.10;99.90;;;;;;20992155;28;20031;-76
2021/07/06 12:20:15;;;;;;;3.05;0.98;;;20.20;99.90;;;;;;20992628;28;20503;-75
2021/07/06 12:30:16;;;;;;;1.02;0.80;;;19.90;99.90;;;;;;20801496;28;20042;-76
2021/07/06 12:40:18;;;;;;;5.23;0.83;;;19.50;99.90;;;;;;20818833;28;20081;-75
2021/07/06 12:50:21;;;;;;;1.10;0.77;;;19.30;99.90;;;;;;20831614;28;20168;-76
2021/07/06 13:00:25;;;;;;;5.50;1.13;;;18.70;99.90;;;;;;20978725;28;20527;-76
2021/07/06 13:10:34;;;;;;;0.82;0.50;;;18.50;99.90;;;;;;21010201;28;20402;-75
2021/07/06 13:20:45;;;;;;;1.23;0.55;;;18.50;99.90;;;;;;21007023;28;20570;-76
2021/07/06 13:30:46;;;;;;;1.25;0.70;;;18.50;99.90;;;;;;21001226;28;20028;-77
2021/07/06 13:40:52;;;;;;;3.10;1.00;;;18.20;99.90;;;;;;21000462;28;20029;-76
2021/07/06 13:50:53;;;;;;;1.90;1.10;;;18.40;99.90;;;;;;20999514;28;20309;-76
2021/07/06 14:00:55;;;;;;;3.10;1.17;;;18.70;99.90;;;;;;20996431;28;20082;-75
2021/07/06 14:10:56;;;;;;;3.25;0.80;;;19.10;99.90;;;;;;20995742;28;20097;-76
2021/07/06 14:20:57;;;;;;;3.47;1.40;;;18.90;99.90;;;;;;20981971;28;20028;-75
2021/07/06 14:30:58;;;;;;;1.87;0.97;;;19.00;99.90;;;;;;20953721;28;20028;-75
2021/07/06 14:40:59;;;;;;;1.23;0.93;;;20.10;99.90;;;;;;20975230;28;20057;-76
2021/07/06 14:51:00;;;;;;;1.10;0.80;;;19.50;99.90;;;;;;20903483;28;20071;-75
2021/07/06 15:01:01;;;;;;;2.15;0.70;;;19.30;99.90;;;;;;20922382;28;20040;-76
2021/07/06 15:11:02;;;;;;;1.17;0.60;;;19.60;99.90;;;;;;20971648;28;20554;-75
2021/07/06 15:21:04;;;;;;;3.13;0.95;;;19.00;99.90;;;;;;20971270;28;20105;-75
2021/07/06 15:31:05;;;;;;;1.43;1.10;;;18.90;99.90;;;;;;20971676;28;20151;-75
2021/07/06 15:41:06;;;;;;;;;;;18.60;99.90;;;;;;20937878;28;20071;-75
2021/07/06 15:51:08;;;;;;;2.50;1.20;;;18.10;99.90;;;;;;20971091;28;19913;-76
2021/07/06 16:01:09;;;;;;;1.80;1.10;;;18.40;99.90;;;;;;20973469;28;20296;-76
2021/07/06 16:11:10;;;;;;;7.10;1.57;;;18.10;99.90;;;;;;20970260;28;20372;-75
2021/07/06 16:21:11;;;;;;;3.60;1.80;;;17.80;99.90;;;;;;20974327;28;20193;-76
2021/07/06 16:31:12;;;;;;;2.37;1.30;;;17.70;99.90;;;;;;20982626;28;20126;-77
2021/07/06 16:41:20;;;;;;;3.00;0.90;;;17.60;99.90;;;;;;20994523;28;20036;-76
2021/07/06 18:03:55;;;;;;;2.60;0.90;;;16.40;99.90;;;;;;20821985;28;20049;-77
2021/07/06 18:13:55;;;;;;;2.22;1.40;;;16.40;99.90;;;;;;20976037;28;20552;-76
2021/07/06 18:23:56;;;;;;;8.83;1.40;;;16.30;99.90;;;;;;20977679;28;20024;-76
2021/07/06 18:33:59;;;;;;;2.75;0.95;;;16.20;99.90;;;;;;20976348;28;20036;-76
2021/07/06 18:44:01;;;;;;;4.43;1.10;;;15.90;99.90;;;;;;20940806;28;20035;-76
2021/07/06 18:54:03;;;;;;;2.13;1.10;;;15.90;99.90;;;;;;20939939;28;20482;-77
2021/07/06 19:04:04;;;;;;;1.85;1.00;;;15.80;99.90;;;;;;20973812;28;20037;-76
2021/07/06 19:14:05;;;;;;;2.07;1.33;;;15.50;99.90;;;;;;20973446;28;20110;-76
2021/07/06 19:34:06;;;;;;;4.37;1.80;;;15.20;99.90;;;;;;20953788;28;20033;-76
2021/07/06 19:44:09;;;;;;;3.07;2.00;;;15.10;99.90;;;;;;20970463;28;20086;-76
2021/07/06 19:54:10;;;;;;;3.60;1.77;;;14.90;99.90;;;;;;20949689;28;20037;-76
2021/07/06 20:04:11;;;;;;;4.70;1.87;;;14.70;99.90;;;;;;20970710;28;20093;-77
2021/07/06 20:14:12;;;;;;;4.00;1.20;;;14.70;99.90;;;;;;20970207;28;20029;-77
2021/07/06 20:24:13;;;;;;;3.03;1.30;;;14.70;99.90;;;;;;20952736;28;20659;-77
2021/07/06 20:34:14;;;;;;;2.97;1.87;;;14.60;99.90;;;;;;20952458;28;20510;-77
2021/07/06 20:44:15;;;;;;;2.90;1.80;;;14.70;99.90;;;;;;20953663;28;20032;-77
2021/07/06 20:54:16;;;;;;;8.67;2.17;;;14.70;99.90;;;;;;20973080;28;20028;-77
2021/07/06 21:04:17;;;;;;;3.00;2.10;;;14.70;99.90;;;;;;20967931;28;20406;-77
2021/07/06 21:14:18;;;;;;;5.83;2.90;;;14.70;99.90;;;;;;21004459;28;20032;-77
2021/07/06 21:24:19;;;;;;;7.57;2.70;;;14.70;99.90;;;;;;21002963;28;20031;-77
2021/07/06 21:34:20;;;;;;;7.17;3.13;;;14.70;99.90;;;;;;21002380;28;20115;-77
2021/07/06 21:44:21;;;;;;;6.97;3.27;;;14.70;99.90;;;;;;21015341;28;20043;-77
2021/07/06 21:54:22;;;;;;;7.20;2.80;;;14.70;99.90;;;;;;21010896;28;20028;-77
2021/07/06 22:04:23;;;;;;;3.90;2.80;;;14.70;99.90;;;;;;20985828;28;20478;-77
2021/07/06 22:14:23;;;;;;;3.77;2.27;;;14.60;99.90;;;;;;20982304;28;20044;-77
2021/07/06 22:24:24;;;;;;;3.70;2.93;;;14.70;99.90;;;;;;20997225;28;20041;-77
2021/07/06 22:34:25;;;;;;;4.47;2.77;;;14.70;99.90;;;;;;20996596;28;20498;-77
2021/07/06 22:44:26;;;;;;;12.00;4.30;;;14.60;99.90;;;;;;20978337;28;20036;-76
2021/07/06 22:54:27;;;;;;;4.27;3.30;;;14.70;99.90;;;;;;20994802;28;20048;-76
2021/07/06 23:04:29;;;;;;;5.50;3.08;;;14.70;99.90;;;;;;20995101;28;20024;-76
2021/07/06 23:14:29;;;;;;;5.00;2.80;;;14.70;99.90;;;;;;20993192;28;20123;-76
2021/07/06 23:24:30;;;;;;;5.17;3.37;;;14.60;99.90;;;;;;20992792;28;20419;-75
2021/07/06 23:34:31;;;;;;;4.30;2.03;;;14.70;99.90;;;;;;20991391;28;20041;-76
2021/07/06 23:44:32;;;;;;;4.07;2.40;;;14.80;99.90;;;;;;20993212;28;20644;-76
2021/07/06 23:54:33;;;;;;;6.50;2.67;;;14.80;99.90;;;;;;20973464;28;20032;-76
